Time;durP1;ratioP1;P1;durP2;ratioP2;P2;SDS_P1;SDS_P2;PMS_P1;PMS_P2;Temp;Humidity;BMP_temperature;BMP_pressure;BME280_temperature;BME280_humidity;BME280_pressure;Samples;Min_cycle;Max_cycle;Signal;HPM_P1;HPM_P2
2022/09/10 00:01:29;;;;;;;;;;;15.00;99.90;;;;;;5035373;28;19921;-32
2022/09/10 00:03:55;;;;;;;;;;;15.00;99.90;;;;;;5032582;28;19921;-32
2022/09/10 00:06:23;;;;;;;;;;;15.00;99.90;;;;;;5035309;28;19923;-34
2022/09/10 00:08:49;;;;;;;;;;;14.90;99.90;;;;;;5035512;28;20344;-33
2022/09/10 00:11:15;;;;;;;;;;;15.00;99.90;;;;;;5018986;28;19917;-32
2022/09/10 00:13:41;;;;;;;;;;;15.00;99.90;;;;;;5035253;28;19921;-32
2022/09/10 00:16:08;;;;;;;;;;;15.00;99.90;;;;;;5035880;28;19979;-32
2022/09/10 00:18:34;;;;;;;;;;;15.00;99.90;;;;;;5035228;28;20309;-32
2022/09/10 00:21:03;;;;;;;;;;;15.00;99.90;;;;;;5035312;28;19917;-33
2022/09/10 00:23:28;;;;;;;;;;;15.00;99.90;;;;;;5033936;28;20010;-34
2022/09/10 00:25:55;;;;;;;;;;;14.90;99.90;;;;;;5035115;28;20438;-34
2022/09/10 00:28:22;;;;;;;;;;;15.00;99.90;;;;;;5035130;28;20374;-35
2022/09/10 00:30:48;;;;;;;;;;;14.90;99.90;;;;;;5034873;28;19972;-37
2022/09/10 00:33:14;;;;;;;;;;;14.90;99.90;;;;;;5035546;28;19920;-35
2022/09/10 00:35:40;;;;;;;;;;;14.90;99.90;;;;;;5052627;28;19917;-33
2022/09/10 00:38:07;;;;;;;;;;;14.90;99.90;;;;;;5033655;28;19970;-37
2022/09/10 00:40:33;;;;;;;;;;;14.90;99.90;;;;;;5052638;28;19916;-35
2022/09/10 00:42:59;;;;;;;;;;;14.90;99.90;;;;;;5018080;28;19916;-38
2022/09/10 00:45:25;;;;;;;;;;;14.90;99.90;;;;;;5034778;28;19916;-38
2022/09/10 00:47:52;;;;;;;;;;;14.90;99.90;;;;;;5032772;28;19928;-36
2022/09/10 00:50:24;;;;;;;;;;;14.90;99.90;;;;;;5034852;28;20028;-34
2022/09/10 00:52:55;;;;;;;;;;;14.90;99.90;;;;;;5034761;28;20382;-35
2022/09/10 00:55:21;;;;;;;;;;;14.90;99.90;;;;;;5034691;28;20004;-33
2022/09/10 00:57:49;;;;;;;;;;;15.00;99.90;;;;;;5031515;28;19940;-33
2022/09/10 01:00:15;;;;;;;;;;;15.00;99.90;;;;;;5034643;28;19950;-36
2022/09/10 01:02:41;;;;;;;;;;;14.90;99.90;;;;;;5051235;28;19917;-37
2022/09/10 01:05:08;;;;;;;;;;;15.00;99.90;;;;;;5050095;28;20309;-34
2022/09/10 01:07:34;;;;;;;;;;;15.00;99.90;;;;;;5034143;28;20011;-37
2022/09/10 01:10:02;;;;;;;;;;;15.00;99.90;;;;;;5031969;28;19980;-36
2022/09/10 01:12:46;;;;;;;;;;;15.00;99.90;;;;;;5034303;28;19916;-35
2022/09/10 01:15:15;;;;;;;;;;;15.00;99.90;;;;;;5034671;28;19924;-36
2022/09/10 01:17:44;;;;;;;;;;;15.00;99.90;;;;;;5034384;28;20047;-36
2022/09/10 01:20:25;;;;;;;;;;;15.00;99.90;;;;;;5052137;28;19939;-37
2022/09/10 01:23:10;;;;;;;;;;;15.10;99.90;;;;;;5034434;28;19927;-37
2022/09/10 01:25:48;;;;;;;;;;;15.10;99.90;;;;;;5032945;28;19917;-36
2022/09/10 01:28:17;;;;;;;;;;;15.10;99.90;;;;;;5032695;28;19932;-36
2022/09/10 01:30:46;;;;;;;;;;;15.10;99.90;;;;;;5033588;28;19917;-37
2022/09/10 01:33:14;;;;;;;;;;;15.10;99.90;;;;;;5034325;28;19999;-35
2022/09/10 01:35:43;;;;;;;;;;;15.00;99.90;;;;;;5014891;28;19916;-34
2022/09/10 01:38:14;;;;;;;;;;;15.10;99.90;;;;;;5033875;28;19923;-34
2022/09/10 01:40:41;;;;;;;;;;;15.00;99.90;;;;;;5034783;28;20375;-35
2022/09/10 01:43:08;;;;;;;;;;;15.10;99.90;;;;;;5034115;28;19984;-35
2022/09/10 01:45:41;;;;;;;;;;;15.10;99.90;;;;;;5015217;28;20412;-37
2022/09/10 01:48:09;;;;;;;;;;;15.00;99.90;;;;;;5036790;28;20019;-37
2022/09/10 01:50:43;;;;;;;;;;;15.10;99.90;;;;;;5037853;28;20162;-35
2022/09/10 01:53:18;;;;;;;;;;;15.10;99.90;;;;;;5055213;28;19917;-36
2022/09/10 01:55:43;;;;;;;;;;;15.00;99.90;;;;;;5042462;28;19955;-34
2022/09/10 01:58:28;;;;;;;;;;;15.10;99.90;;;;;;5038025;28;19916;-36
2022/09/10 02:01:12;;;;;;;;;;;15.10;99.90;;;;;;5050469;28;19980;-33
2022/09/10 02:03:40;;;;;;;;;;;15.10;99.90;;;;;;5037956;28;20392;-36
2022/09/10 02:06:08;;;;;;;;;;;15.10;99.90;;;;;;5037744;28;19920;-35
2022/09/10 02:08:37;;;;;;;;;;;15.10;99.90;;;;;;5037979;28;20303;-35
2022/09/10 02:11:08;;;;;;;;;;;15.10;99.90;;;;;;5037520;28;20007;-32
2022/09/10 02:13:34;;;;;;;;;;;15.10;99.90;;;;;;5034037;28;20007;-36
2022/09/10 02:16:02;;;;;;;;;;;15.20;99.90;;;;;;5036613;28;19990;-35
2022/09/10 02:18:29;;;;;;;;;;;15.10;99.90;;;;;;5031231;28;20051;-34
2022/09/10 02:20:56;;;;;;;;;;;15.10;99.90;;;;;;5037565;28;19924;-35
2022/09/10 02:23:30;;;;;;;;;;;15.10;99.90;;;;;;5051248;28;19924;-34
2022/09/10 02:25:56;;;;;;;;;;;15.10;99.90;;;;;;5037612;28;19971;-35
2022/09/10 02:28:22;;;;;;;;;;;15.10;99.90;;;;;;5037127;28;19926;-36
2022/09/10 02:30:47;;;;;;;;;;;15.10;99.90;;;;;;5032578;28;20325;-38
2022/09/10 02:33:15;;;;;;;;;;;15.20;99.90;;;;;;5036232;28;20004;-38
2022/09/10 02:35:44;;;;;;;;;;;15.10;99.90;;;;;;5038019;28;19917;-37
2022/09/10 02:38:10;;;;;;;;;;;15.10;99.90;;;;;;5038632;28;19964;-40
2022/09/10 02:40:35;;;;;;;;;;;15.10;99.90;;;;;;5041270;28;20309;-37
2022/09/10 02:43:01;;;;;;;;;;;15.10;99.90;;;;;;5041195;28;19917;-36
2022/09/10 02:45:27;;;;;;;;;;;15.10;99.90;;;;;;5022729;28;20377;-35
2022/09/10 02:47:53;;;;;;;;;;;15.10;99.90;;;;;;5042929;28;20031;-35
2022/09/10 02:50:19;;;;;;;;;;;15.10;99.90;;;;;;5036812;28;19952;-35
2022/09/10 02:52:45;;;;;;;;;;;15.10;99.90;;;;;;5035758;28;19952;-36
2022/09/10 02:55:11;;;;;;;;;;;15.10;99.90;;;;;;5034671;28;19923;-36
2022/09/10 02:57:38;;;;;;;;;;;15.10;99.90;;;;;;5033980;28;19917;-34
2022/09/10 03:00:04;;;;;;;;;;;15.10;99.90;;;;;;5045966;28;19921;-37
2022/09/10 03:02:30;;;;;;;;;;;15.10;99.90;;;;;;5034934;28;19931;-35
2022/09/10 03:04:56;;;;;;;;;;;15.10;99.90;;;;;;5049509;28;19917;-39
2022/09/10 03:07:21;;;;;;;;;;;15.20;99.90;;;;;;5036811;28;19921;-37
2022/09/10 03:09:48;;;;;;;;;;;15.20;99.90;;;;;;5036323;28;19962;-38
2022/09/10 03:12:15;;;;;;;;;;;15.20;99.90;;;;;;5036420;28;19927;-38
2022/09/10 03:14:41;;;;;;;;;;;15.20;99.90;;;;;;5034686;28;19916;-35
2022/09/10 03:17:08;;;;;;;;;;;15.20;99.90;;;;;;5018961;28;19996;-35
2022/09/10 03:19:35;;;;;;;;;;;15.20;99.90;;;;;;5036510;28;20404;-35
2022/09/10 03:22:00;;;;;;;;;;;15.20;99.90;;;;;;5036338;28;19917;-35
2022/09/10 03:24:27;;;;;;;;;;;15.20;99.90;;;;;;5036600;28;20102;-39
2022/09/10 03:26:53;;;;;;;;;;;15.20;99.90;;;;;;5035838;28;20003;-39
2022/09/10 03:29:18;;;;;;;;;;;15.20;99.90;;;;;;5035833;28;20003;-37
2022/09/10 03:31:45;;;;;;;;;;;15.30;99.90;;;;;;5041014;28;19978;-37
2022/09/10 03:34:11;;;;;;;;;;;15.20;99.90;;;;;;5033354;28;20357;-35
2022/09/10 03:36:37;;;;;;;;;;;15.30;99.90;;;;;;5036324;28;20283;-35
2022/09/10 03:39:02;;;;;;;;;;;15.30;99.90;;;;;;5037019;28;19924;-35
2022/09/10 03:41:29;;;;;;;;;;;15.30;99.90;;;;;;5035671;28;19924;-37
2022/09/10 03:43:56;;;;;;;;;;;15.30;99.90;;;;;;5035995;28;19916;-36
2022/09/10 03:46:22;;;;;;;;;;;15.30;99.90;;;;;;5019714;28;19923;-37
2022/09/10 03:48:47;;;;;;;;;;;15.30;99.90;;;;;;5019131;28;19920;-38
2022/09/10 03:51:14;;;;;;;;;;;15.30;99.90;;;;;;5036000;28;19916;-36
2022/09/10 03:53:41;;;;;;;;;;;15.30;99.90;;;;;;5036061;28;20332;-36
2022/09/10 03:56:07;;;;;;;;;;;15.30;99.90;;;;;;5035876;28;19917;-36
2022/09/10 03:58:33;;;;;;;;;;;15.30;99.90;;;;;;5035436;28;19963;-38
2022/09/10 04:00:59;;;;;;;;;;;15.30;99.90;;;;;;5035365;28;19923;-36
2022/09/10 04:03:25;;;;;;;;;;;15.30;99.90;;;;;;5034441;28;19916;-37
2022/09/10 04:05:50;;;;;;;;;;;15.30;99.90;;;;;;5035090;28;19916;-36
2022/09/10 04:08:16;;;;;;;;;;;15.30;99.90;;;;;;5035749;28;19920;-36
2022/09/10 04:10:43;;;;;;;;;;;15.30;99.90;;;;;;5041712;28;19969;-36
2022/09/10 04:13:09;;;;;;;;;;;15.30;99.90;;;;;;5026243;28;19917;-36
2022/09/10 04:15:35;;;;;;;;;;;15.30;99.90;;;;;;5035765;28;20271;-36
2022/09/10 04:18:00;;;;;;;;;;;15.30;99.90;;;;;;5032153;28;19917;-36
2022/09/10 04:20:26;;;;;;;;;;;15.30;99.90;;;;;;5019599;28;19924;-39
2022/09/10 04:22:52;;;;;;;;;;;15.30;99.90;;;;;;5033432;28;19916;-37
2022/09/10 04:25:18;;;;;;;;;;;15.30;99.90;;;;;;5026529;28;19983;-38
2022/09/10 04:27:48;;;;;;;;;;;15.30;99.90;;;;;;5037058;28;19925;-36
2022/09/10 04:30:14;;;;;;;;;;;15.30;99.90;;;;;;5012325;28;19923;-35
2022/09/10 04:32:40;;;;;;;;;;;15.40;99.90;;;;;;5027450;28;19920;-35
2022/09/10 04:35:06;;;;;;;;;;;15.30;99.90;;;;;;5035077;28;19962;-37
2022/09/10 04:37:32;;;;;;;;;;;15.30;99.90;;;;;;5034821;28;19952;-37
2022/09/10 04:39:58;;;;;;;;;;;15.30;99.90;;;;;;5036239;28;19916;-36
2022/09/10 04:42:24;;;;;;;;;;;15.30;99.90;;;;;;5052543;28;19921;-36
2022/09/10 04:44:49;;;;;;;;;;;15.30;99.90;;;;;;5035527;28;19923;-36
2022/09/10 04:47:16;;;;;;;;;;;15.40;99.90;;;;;;5034600;28;20328;-38
2022/09/10 04:49:42;;;;;;;;;;;15.40;99.90;;;;;;5053074;28;20325;-35
2022/09/10 04:52:09;;;;;;;;;;;15.40;99.90;;;;;;5034353;28;20003;-35
2022/09/10 04:54:36;;;;;;;;;;;15.40;99.90;;;;;;5001773;28;19981;-34
2022/09/10 04:57:02;;;;;;;;;;;15.40;99.90;;;;;;5034895;28;19963;-34
2022/09/10 04:59:28;;;;;;;;;;;15.40;99.90;;;;;;5022762;28;19959;-37
2022/09/10 05:01:54;;;;;;;;;;;15.40;99.90;;;;;;5035157;28;20399;-34
2022/09/10 05:04:19;;;;;;;;;;;15.40;99.90;;;;;;5036449;28;19963;-35
2022/09/10 05:06:48;;;;;;;;;;;15.40;99.90;;;;;;5034875;28;19964;-36
2022/09/10 05:09:13;;;;;;;;;;;15.40;99.90;;;;;;5029924;28;19921;-34
2022/09/10 05:11:39;;;;;;;;;;;15.40;99.90;;;;;;5032909;28;20358;-34
2022/09/10 05:14:06;;;;;;;;;;;15.40;99.90;;;;;;5050991;28;19923;-35
2022/09/10 05:16:31;;;;;;;;;;;15.50;99.90;;;;;;5033878;28;19917;-35
2022/09/10 05:18:58;;;;;;;;;;;15.50;99.90;;;;;;5034636;28;19938;-35
2022/09/10 05:21:23;;;;;;;;;;;15.50;99.90;;;;;;5033211;28;19951;-33
2022/09/10 05:23:50;;;;;;;;;;;15.50;99.90;;;;;;5033092;28;20374;-36
2022/09/10 05:26:16;;;;;;;;;;;15.50;99.90;;;;;;5042662;28;20316;-36
2022/09/10 05:28:41;;;;;;;;;;;15.50;99.90;;;;;;5023847;28;19920;-35
2022/09/10 05:31:08;;;;;;;;;;;15.50;99.90;;;;;;5034233;28;19937;-35
2022/09/10 05:33:34;;;;;;;;;;;15.50;99.90;;;;;;5027165;28;20355;-36
2022/09/10 05:36:00;;;;;;;;;;;15.50;99.90;;;;;;5013796;28;20294;-36
2022/09/10 05:38:26;;;;;;;;;;;15.50;99.90;;;;;;5027524;28;19923;-37
2022/09/10 05:40:52;;;;;;;;;;;15.50;99.90;;;;;;5040488;28;19978;-35
2022/09/10 05:43:21;;;;;;;;;;;15.50;99.90;;;;;;5041711;28;19917;-37
2022/09/10 05:45:47;;;;;;;;;;;15.50;99.90;;;;;;5035921;28;20008;-38
2022/09/10 05:48:12;;;;;;;;;;;15.60;99.90;;;;;;5024704;28;20387;-36
2022/09/10 05:50:38;;;;;;;;;;;15.60;99.90;;;;;;5031241;28;20381;-34
2022/09/10 05:53:04;;;;;;;;;;;15.60;99.90;;;;;;5002126;28;19942;-35
2022/09/10 05:55:30;;;;;;;;;;;15.60;99.90;;;;;;5023906;28;19932;-35
2022/09/10 05:57:57;;;;;;;;;;;15.60;99.90;;;;;;5028682;28;20009;-35
2022/09/10 06:00:24;;;;;;;;;;;15.60;99.90;;;;;;5026817;28;19916;-34
2022/09/10 06:02:49;;;;;;;;;;;15.60;99.90;;;;;;5010327;28;20363;-34
2022/09/10 06:05:15;;;;;;;;;;;15.70;99.90;;;;;;5027688;28;19917;-37
2022/09/10 06:07:41;;;;;;;;;;;15.70;99.90;;;;;;5031549;28;20333;-38
2022/09/10 06:10:07;;;;;;;;;;;15.70;99.90;;;;;;5023042;28;19916;-35
2022/09/10 06:12:33;;;;;;;;;;;15.70;99.90;;;;;;5022082;28;19931;-35
2022/09/10 06:14:59;;;;;;;;;;;15.80;99.90;;;;;;5016322;28;19917;-38
2022/09/10 06:17:24;;;;;;;;;;;15.80;99.90;;;;;;5038642;28;19920;-38
2022/09/10 06:19:52;;;;;;;;;;;15.80;99.90;;;;;;5027159;28;19958;-35
2022/09/10 06:22:18;;;;;;;;;;;15.90;99.90;;;;;;5029455;28;19977;-36
2022/09/10 06:24:48;;;;;;;;;;;15.90;99.90;;;;;;5041069;28;19925;-35
2022/09/10 06:27:13;;;;;;;;;;;16.00;99.90;;;;;;5027330;28;19924;-37
2022/09/10 06:29:39;;;;;;;;;;;16.00;99.90;;;;;;5041738;28;19917;-36
2022/09/10 06:32:05;;;;;;;;;;;16.10;99.90;;;;;;5026272;28;19924;-36
2022/09/10 06:34:31;;;;;;;;;;;16.10;99.90;;;;;;5033189;28;19923;-35
2022/09/10 06:36:57;;;;;;;;;;;16.20;99.90;;;;;;5047813;28;19916;-37
2022/09/10 06:39:22;;;;;;;;;;;16.20;99.90;;;;;;5028037;28;19924;-36
2022/09/10 06:41:48;;;;;;;;;;;16.20;99.90;;;;;;5028374;28;19917;-35
2022/09/10 06:44:14;;;;;;;;;;;16.30;99.90;;;;;;5022385;28;19928;-36
2022/09/10 06:46:41;;;;;;;;;;;16.30;99.90;;;;;;5026301;28;19979;-36
2022/09/10 06:49:09;;;;;;;;;;;16.40;99.90;;;;;;5040831;28;19925;-35
2022/09/10 06:51:35;;;;;;;;;;;16.40;99.90;;;;;;5040048;28;20381;-36
2022/09/10 06:54:01;;;;;;;;;;;16.40;99.90;;;;;;5027120;28;19925;-35
2022/09/10 06:56:27;;;;;;;;;;;16.50;99.90;;;;;;5018885;28;19990;-35
2022/09/10 06:58:53;;;;;;;;;;;16.50;99.90;;;;;;5036430;28;19917;-36
2022/09/10 07:01:20;;;;;;;;;;;16.50;99.90;;;;;;5024028;28;19924;-35
2022/09/10 07:03:46;;;;;;;;;;;16.60;99.90;;;;;;5028991;28;19952;-37
2022/09/10 07:06:13;;;;;;;;;;;16.60;99.90;;;;;;5033340;28;19920;-37
2022/09/10 07:08:39;;;;;;;;;;;16.70;99.90;;;;;;5025554;28;19927;-35
2022/09/10 07:11:06;;;;;;;;;;;16.80;99.90;;;;;;5033320;28;19917;-36
2022/09/10 07:13:33;;;;;;;;;;;16.80;99.90;;;;;;5046928;28;20278;-38
2022/09/10 07:16:00;;;;;;;;;;;16.90;99.90;;;;;;5035648;28;20007;-36
2022/09/10 07:18:27;;;;;;;;;;;16.90;99.90;;;;;;5034199;28;20424;-37
2022/09/10 07:20:53;;;;;;;;;;;16.90;99.90;;;;;;5031577;28;20006;-38
2022/09/10 07:23:20;;;;;;;;;;;16.90;99.90;;;;;;5034618;28;19931;-34
2022/09/10 07:25:46;;;;;;;;;;;16.90;99.90;;;;;;5030213;28;19924;-36
2022/09/10 07:28:16;;;;;;;;;;;16.90;99.90;;;;;;5049852;28;19936;-36
2022/09/10 07:30:42;;;;;;;;;;;16.90;99.90;;;;;;5036258;28;19967;-34
2022/09/10 07:33:10;;;;;;;;;;;16.80;99.90;;;;;;5035652;28;20271;-36
2022/09/10 07:35:36;;;;;;;;;;;16.80;99.90;;;;;;5035803;28;19916;-35
2022/09/10 07:38:02;;;;;;;;;;;16.70;99.90;;;;;;5035328;28;19921;-35
2022/09/10 07:40:28;;;;;;;;;;;16.80;99.90;;;;;;5035948;28;20370;-36
2022/09/10 07:42:54;;;;;;;;;;;16.80;99.90;;;;;;5053630;28;19969;-35
2022/09/10 07:45:20;;;;;;;;;;;16.80;99.90;;;;;;5036006;28;19917;-35
2022/09/10 07:47:46;;;;;;;;;;;16.80;99.90;;;;;;5019623;28;19942;-37
2022/09/10 07:50:13;;;;;;;;;;;16.90;99.90;;;;;;5019619;28;20290;-36
2022/09/10 07:52:39;;;;;;;;;;;16.80;99.90;;;;;;5035934;28;19917;-35
2022/09/10 07:55:05;;;;;;;;;;;16.90;99.90;;;;;;5036173;28;19979;-36
2022/09/10 07:57:32;;;;;;;;;;;17.00;99.90;;;;;;5034321;28;20062;-35
2022/09/10 07:59:59;;;;;;;;;;;17.10;99.90;;;;;;5034623;28;19924;-36
2022/09/10 08:02:25;;;;;;;;;;;17.20;99.90;;;;;;5035264;28;20014;-37
2022/09/10 08:04:51;;;;;;;;;;;17.30;99.90;;;;;;5053203;28;19920;-35
2022/09/10 08:07:18;;;;;;;;;;;17.50;99.90;;;;;;5032171;28;20287;-34
2022/09/10 08:09:44;;;;;;;;;;;17.70;99.90;;;;;;5020169;28;20004;-39
2022/09/10 08:12:10;;;;;;;;;;;17.90;99.90;;;;;;5031266;28;19917;-37
2022/09/10 08:14:39;;;;;;;;;;;18.40;99.90;;;;;;5047405;28;20011;-39
2022/09/10 08:17:04;;;;;;;;;;;18.50;99.90;;;;;;5034788;28;19967;-36
2022/09/10 08:19:30;;;;;;;;;;;18.60;99.90;;;;;;5049288;28;20378;-38
2022/09/10 08:21:55;;;;;;;;;;;18.70;99.90;;;;;;5019205;28;20392;-39
2022/09/10 08:24:22;;;;;;;;;;;18.80;99.90;;;;;;5034884;28;19917;-37
2022/09/10 08:26:48;;;;;;;;;;;18.70;99.90;;;;;;5042434;28;19916;-35
2022/09/10 08:29:13;;;;;;;;;;;18.80;99.90;;;;;;5038277;28;19935;-35
2022/09/10 08:31:40;;;;;;;;;;;18.90;99.90;;;;;;5034693;28;19921;-36
2022/09/10 08:34:08;;;;;;;;;;;18.80;99.90;;;;;;5034682;28;19918;-36
2022/09/10 08:36:33;;;;;;;;;;;18.90;99.90;;;;;;5036742;28;20420;-37
2022/09/10 08:38:59;;;;;;;;;;;18.80;99.90;;;;;;5039418;28;19917;-35
2022/09/10 08:41:31;;;;;;;;;;;18.70;99.90;;;;;;5033646;28;20003;-36
2022/09/10 08:44:02;;;;;;;;;;;18.80;99.90;;;;;;5036746;28;20365;-35
2022/09/10 08:46:44;;;;;;;;;;;18.80;99.90;;;;;;5038390;28;19924;-37
2022/09/10 08:49:36;;;;;;;;;;;19.00;99.90;;;;;;5017156;28;19920;-36
2022/09/10 08:52:06;;;;;;;;;;;19.50;99.90;;;;;;5030406;28;19963;-35
2022/09/10 08:55:00;;;;;;;;;;;20.10;99.90;;;;;;5048552;28;19971;-35
2022/09/10 08:57:30;;;;;;;;;;;20.30;99.90;;;;;;5018205;28;20370;-37
2022/09/10 08:59:57;;;;;;;;;;;20.60;99.90;;;;;;5034981;28;20047;-36
2022/09/10 09:02:30;;;;;;;;;;;20.80;99.90;;;;;;5034714;28;19917;-36
2022/09/10 09:05:03;;;;;;;;;;;20.70;99.90;;;;;;5034793;28;20313;-36
2022/09/10 09:07:33;;;;;;;;;;;20.80;99.90;;;;;;5034972;28;20358;-35
2022/09/10 09:09:59;;;;;;;;;;;20.60;99.90;;;;;;5035758;28;20279;-36
2022/09/10 09:12:36;;;;;;;;;;;20.50;99.90;;;;;;5031316;28;20420;-39
2022/09/10 09:15:25;;;;;;;;;;;20.50;99.90;;;;;;5029859;28;19917;-36
2022/09/10 09:18:03;;;;;;;;;;;20.70;99.90;;;;;;5033186;28;19916;-35
2022/09/10 09:20:35;;;;;;;;;;;21.40;99.90;;;;;;5014548;28;19956;-35
2022/09/10 09:23:04;;;;;;;;;;;21.80;99.90;;;;;;5051318;28;20035;-36
2022/09/10 09:25:44;;;;;;;;;;;22.30;99.90;;;;;;5050544;28;19996;-35
2022/09/10 09:28:16;;;;;;;;;;;22.50;99.90;;;;;;5030880;28;19974;-35
2022/09/10 09:30:48;;;;;;;;;;;22.40;99.90;;;;;;5037074;28;19916;-39
2022/09/10 09:33:15;;;;;;;;;;;21.90;99.90;;;;;;5034052;28;19967;-38
2022/09/10 09:35:46;;;;;;;;;;;21.80;99.90;;;;;;5052230;28;20443;-35
2022/09/10 09:38:18;;;;;;;;;;;21.50;99.90;;;;;;5033749;28;19920;-36
2022/09/10 09:40:48;;;;;;;;;;;21.60;99.90;;;;;;5033697;28;19931;-38
2022/09/10 09:43:30;;;;;;;;;;;21.60;99.90;;;;;;5033781;28;19917;-36
2022/09/10 09:45:55;;;;;;;;;;;21.60;99.90;;;;;;5034488;28;19920;-36
2022/09/10 09:48:21;;;;;;;;;;;21.90;99.90;;;;;;5033612;28;20327;-35
2022/09/10 09:50:49;;;;;;;;;;;22.00;99.90;;;;;;5017517;28;20394;-36
2022/09/10 09:53:25;;;;;;;;;;;22.20;99.90;;;;;;5034065;28;19941;-38
2022/09/10 09:55:53;;;;;;;;;;;22.30;99.90;;;;;;5021868;28;19924;-37
2022/09/10 09:58:28;;;;;;;;;;;22.50;99.90;;;;;;5031910;28;20008;-39
2022/09/10 10:00:53;;;;;;;;;;;22.20;99.90;;;;;;5033381;28;20321;-36
2022/09/10 10:03:23;;;;;;;;;;;22.00;99.90;;;;;;5037093;28;20010;-37
2022/09/10 10:05:48;;;;;;;;;;;22.00;99.90;;;;;;5017891;28;19917;-35
2022/09/10 10:08:36;;;;;;;;;;;22.10;99.90;;;;;;5037779;28;20003;-38
2022/09/10 10:11:02;;;;;;;;;;;22.20;99.90;;;;;;5040197;28;20394;-36
2022/09/10 10:13:54;;;;;;;;;;;22.50;99.90;;;;;;5036675;28;20328;-39
2022/09/10 10:16:21;;;;;;;;;;;22.90;99.90;;;;;;5050158;28;19943;-37
2022/09/10 10:18:46;;;;;;;;;;;23.00;99.90;;;;;;5034346;28;20366;-38
2022/09/10 10:21:15;;;;;;;;;;;23.40;99.90;;;;;;5033475;28;20007;-37
2022/09/10 10:23:41;;;;;;;;;;;23.50;99.90;;;;;;5021379;28;19916;-36
2022/09/10 10:26:19;;;;;;;;;;;23.50;99.90;;;;;;5035629;28;19917;-37
2022/09/10 10:28:46;;;;;;;;;;;23.60;99.90;;;;;;5036021;28;19929;-36
2022/09/10 10:31:13;;;;;;;;;;;23.50;99.90;;;;;;5045208;28;20357;-38
2022/09/10 10:34:00;;;;;;;;;;;23.60;99.90;;;;;;5035076;28;19923;-36
2022/09/10 10:36:31;;;;;;;;;;;23.50;99.90;;;;;;5013035;28;19943;-35
2022/09/10 10:39:09;;;;;;;;;;;23.50;99.90;;;;;;5038040;28;19917;-37
2022/09/10 10:41:57;;;;;;;;;;;23.60;99.90;;;;;;5033685;28;19920;-35
2022/09/10 10:44:26;;;;;;;;;;;24.10;99.90;;;;;;5037913;28;20374;-36
2022/09/10 10:47:10;;;;;;;;;;;24.50;99.90;;;;;;5037527;28;19946;-36
2022/09/10 10:49:45;;;;;;;;;;;24.90;99.90;;;;;;5037526;28;19921;-37
2022/09/10 10:52:18;;;;;;;;;;;25.20;99.90;;;;;;5037433;28;20320;-35
2022/09/10 10:55:00;;;;;;;;;;;25.50;99.90;;;;;;5052671;28;20040;-35
2022/09/10 10:57:44;;;;;;;;;;;26.40;99.90;;;;;;5053135;28;19996;-35
2022/09/10 11:00:18;;;;;;;;;;;26.50;99.90;;;;;;5024067;28;19916;-34
2022/09/10 11:02:49;;;;;;;;;;;26.50;99.90;;;;;;5036612;28;19916;-34
2022/09/10 11:05:21;;;;;;;;;;;26.00;99.90;;;;;;5036308;28;19920;-34
2022/09/10 11:07:47;;;;;;;;;;;25.80;99.90;;;;;;5036167;28;19924;-35
2022/09/10 11:10:13;;;;;;;;;;;25.70;99.90;;;;;;5049984;28;20259;-35
2022/09/10 11:12:57;;;;;;;;;;;25.80;99.90;;;;;;5034774;28;20012;-35
2022/09/10 11:15:36;;;;;;;;;;;25.80;99.90;;;;;;5031937;28;19924;-36
2022/09/10 11:18:05;;;;;;;;;;;25.60;97.70;;;;;;5035786;28;19924;-35
2022/09/10 11:20:34;;;;;;;;;;;25.90;99.90;;;;;;5036550;28;19968;-36
2022/09/10 11:23:05;;;;;;;;;;;26.40;99.90;;;;;;5036525;28;20321;-36
2022/09/10 11:25:36;;;;;;;;;;;26.90;99.90;;;;;;5028190;28;19917;-35
2022/09/10 11:28:04;;;;;;;;;;;27.10;99.90;;;;;;5035744;28;19921;-35
2022/09/10 11:30:32;;;;;;;;;;;27.60;99.90;;;;;;5036485;28;19921;-35
2022/09/10 11:33:01;;;;;;;;;;;28.20;99.90;;;;;;5054795;28;20373;-35
2022/09/10 11:35:33;;;;;;;;;;;28.30;99.90;;;;;;5030816;28;19925;-35
2022/09/10 11:38:11;;;;;;;;;;;27.70;80.10;;;;;;5032010;28;19917;-35
2022/09/10 11:40:38;;;;;;;;;;;27.10;88.00;;;;;;5039341;28;19917;-34
2022/09/10 11:43:13;;;;;;;;;;;26.70;98.10;;;;;;5020233;28;20282;-34
2022/09/10 11:45:51;;;;;;;;;;;26.40;99.90;;;;;;5058935;28;19948;-35
2022/09/10 11:48:17;;;;;;;;;;;26.60;99.90;;;;;;5036667;28;19928;-36
2022/09/10 11:50:46;;;;;;;;;;;26.30;99.90;;;;;;5036031;28;19917;-35
2022/09/10 11:53:17;;;;;;;;;;;25.70;99.90;;;;;;5036321;28;20313;-36
2022/09/10 11:55:56;;;;;;;;;;;25.30;99.90;;;;;;5038954;28;19916;-35
2022/09/10 11:58:40;;;;;;;;;;;24.70;99.90;;;;;;5043398;28;19917;-34
2022/09/10 12:01:06;;;;;;;;;;;24.30;99.90;;;;;;5041685;28;19917;-35
2022/09/10 12:03:35;;;;;;;;;;;24.00;99.90;;;;;;5038173;28;19924;-33
2022/09/10 12:06:04;;;;;;;;;;;23.80;99.90;;;;;;5037473;28;19990;-35
2022/09/10 12:08:33;;;;;;;;;;;23.60;99.90;;;;;;5044701;28;19929;-34
2022/09/10 12:11:04;;;;;;;;;;;23.40;99.90;;;;;;5034373;28;21002;-34
2022/09/10 12:13:33;;;;;;;;;;;23.30;99.90;;;;;;5053054;28;19925;-33
2022/09/10 12:16:03;;;;;;;;;;;23.20;99.90;;;;;;5039054;28;19942;-34
2022/09/10 12:18:34;;;;;;;;;;;23.10;99.90;;;;;;5052528;28;20353;-36
2022/09/10 12:21:21;;;;;;;;;;;23.00;99.90;;;;;;5018996;28;19975;-35
2022/09/10 12:23:47;;;;;;;;;;;22.80;99.90;;;;;;5030144;28;19917;-33
2022/09/10 12:26:18;;;;;;;;;;;22.70;99.90;;;;;;5034787;28;19939;-35
2022/09/10 12:28:48;;;;;;;;;;;22.50;99.90;;;;;;5035915;28;19921;-35
2022/09/10 12:31:18;;;;;;;;;;;22.30;99.90;;;;;;5035385;28;19917;-34
2022/09/10 12:33:44;;;;;;;;;;;22.20;99.90;;;;;;5040247;28;19917;-35
2022/09/10 12:36:14;;;;;;;;;;;22.20;99.90;;;;;;5036968;28;20288;-32
2022/09/10 12:38:43;;;;;;;;;;;22.10;99.90;;;;;;5037363;28;20377;-35
2022/09/10 12:41:09;;;;;;;;;;;22.10;99.90;;;;;;5046184;28;20182;-34
2022/09/10 12:43:38;;;;;;;;;;;22.00;99.90;;;;;;5039976;28;19920;-35
2022/09/10 12:46:07;;;;;;;;;;;21.90;99.90;;;;;;5024621;28;20020;-35
2022/09/10 12:48:57;;;;;;;;;;;21.90;99.90;;;;;;5056806;28;20158;-36
2022/09/10 12:51:34;;;;;;;;;;;21.90;99.90;;;;;;5021588;28;19991;-34
2022/09/10 12:54:06;;;;;;;;;;;22.00;99.90;;;;;;5035297;28;20366;-36
2022/09/10 12:56:59;;;;;;;;;;;22.10;99.90;;;;;;5035060;28;19923;-35
2022/09/10 12:59:31;;;;;;;;;;;22.10;99.90;;;;;;5006287;28;19924;-34
2022/09/10 13:01:57;;;;;;;;;;;22.10;99.90;;;;;;5052743;28;19963;-34
2022/09/10 13:04:27;;;;;;;;;;;22.30;99.90;;;;;;5035395;28;20370;-34
2022/09/10 13:06:58;;;;;;;;;;;22.30;99.90;;;;;;5035031;28;19917;-35
2022/09/10 13:09:28;;;;;;;;;;;22.40;99.90;;;;;;5035010;28;20362;-35
2022/09/10 13:11:55;;;;;;;;;;;22.50;99.90;;;;;;5018756;28;19917;-34
2022/09/10 13:14:25;;;;;;;;;;;22.70;99.90;;;;;;5035299;28;19917;-33
2022/09/10 13:17:04;;;;;;;;;;;23.10;99.90;;;;;;5053484;28;19920;-35
2022/09/10 13:19:33;;;;;;;;;;;23.30;99.90;;;;;;5052554;28;19916;-33
2022/09/10 13:21:59;;;;;;;;;;;23.60;99.90;;;;;;5045718;28;20007;-33
2022/09/10 13:24:35;;;;;;;;;;;23.80;99.90;;;;;;5038014;28;19975;-33
2022/09/10 13:27:03;;;;;;;;;;;24.30;99.90;;;;;;5038601;28;20382;-34
2022/09/10 13:29:33;;;;;;;;;;;25.20;99.90;;;;;;5035175;28;19969;-33
2022/09/10 13:32:05;;;;;;;;;;;26.10;99.90;;;;;;5034964;28;19942;-34
2022/09/10 13:34:47;;;;;;;;;;;26.30;99.90;;;;;;5018659;28;19916;-34
2022/09/10 13:37:25;;;;;;;;;;;26.30;99.90;;;;;;5048508;28;19916;-33
2022/09/10 13:39:58;;;;;;;;;;;26.60;99.90;;;;;;5076838;28;19916;-34
2022/09/10 13:42:41;;;;;;;;;;;26.50;99.40;;;;;;5059055;28;19916;-34
2022/09/10 13:45:06;;;;;;;;;;;26.40;99.90;;;;;;5042625;28;20390;-34
2022/09/10 13:47:38;;;;;;;;;;;26.20;99.00;;;;;;5047566;28;20000;-33
2022/09/10 13:50:13;;;;;;;;;;;25.90;97.50;;;;;;5036374;28;19924;-34
2022/09/10 13:52:42;;;;;;;;;;;25.90;99.90;;;;;;5038869;28;20364;-34
2022/09/10 13:55:07;;;;;;;;;;;26.10;99.90;;;;;;5036309;28;19916;-34
2022/09/10 13:57:41;;;;;;;;;;;26.40;99.90;;;;;;5040201;28;20035;-33
2022/09/10 14:00:16;;;;;;;;;;;27.00;99.00;;;;;;5038978;28;20275;-34
2022/09/10 14:02:49;;;;;;;;;;;27.40;99.90;;;;;;5018592;28;20385;-33
2022/09/10 14:05:21;;;;;;;;;;;26.90;85.60;;;;;;5036532;28;19948;-35
2022/09/10 14:07:49;;;;;;;;;;;26.60;97.20;;;;;;5011244;28;20305;-33
2022/09/10 14:10:16;;;;;;;;;;;26.20;99.60;;;;;;5024709;28;19997;-34
2022/09/10 14:12:41;;;;;;;;;;;25.80;99.00;;;;;;5052056;28;20297;-33
2022/09/10 14:15:14;;;;;;;;;;;25.80;99.90;;;;;;5065000;28;19916;-34
2022/09/10 14:17:43;;;;;;;;;;;25.90;99.90;;;;;;5040873;28;20297;-33
2022/09/10 14:20:16;;;;;;;;;;;26.60;99.90;;;;;;5010062;28;19917;-34
2022/09/10 14:22:43;;;;;;;;;;;26.80;99.90;;;;;;5051666;28;19963;-33
2022/09/10 14:25:26;;;;;;;;;;;26.70;99.90;;;;;;5021908;28;19917;-33
2022/09/10 14:27:52;;;;;;;;;;;26.70;98.90;;;;;;5035649;28;19971;-33